sensor_id;sensor_type;location;lat;lon;timestamp;P1;durP1;ratioP1;P2;durP2;ratioP2
78989;SDS011;68390;52.130;21.218;2024-02-15T00:00:11;14.90;;;6.57;;
78989;SDS011;68390;52.130;21.218;2024-02-15T00:02:37;12.20;;;5.75;;
78989;SDS011;68390;52.130;21.218;2024-02-15T00:05:03;13.23;;;6.60;;
78989;SDS011;68390;52.130;21.218;2024-02-15T00:07:28;16.67;;;6.28;;
78989;SDS011;68390;52.130;21.218;2024-02-15T00:09:54;15.13;;;5.60;;
78989;SDS011;68390;52.130;21.218;2024-02-15T00:12:19;14.57;;;6.05;;
78989;SDS011;68390;52.130;21.218;2024-02-15T00:14:45;11.90;;;6.25;;
78989;SDS011;68390;52.130;21.218;2024-02-15T00:17:10;12.15;;;5.75;;
78989;SDS011;68390;52.130;21.218;2024-02-15T00:19:37;14.75;;;6.32;;
78989;SDS011;68390;52.130;21.218;2024-02-15T00:22:03;12.50;;;6.10;;
78989;SDS011;68390;52.130;21.218;2024-02-15T00:24:29;12.93;;;5.40;;
78989;SDS011;68390;52.130;21.218;2024-02-15T00:26:56;12.90;;;6.13;;
78989;SDS011;68390;52.130;21.218;2024-02-15T00:29:21;12.90;;;6.15;;
78989;SDS011;68390;52.130;21.218;2024-02-15T00:31:47;12.68;;;5.43;;
78989;SDS011;68390;52.130;21.218;2024-02-15T00:34:12;12.60;;;5.88;;
78989;SDS011;68390;52.130;21.218;2024-02-15T00:36:37;13.07;;;5.80;;
78989;SDS011;68390;52.130;21.218;2024-02-15T00:39:03;11.20;;;6.15;;
78989;SDS011;68390;52.130;21.218;2024-02-15T00:41:31;14.90;;;6.30;;
78989;SDS011;68390;52.130;21.218;2024-02-15T00:43:58;11.98;;;5.88;;
78989;SDS011;68390;52.130;21.218;2024-02-15T00:46:24;10.98;;;5.70;;
78989;SDS011;68390;52.130;21.218;2024-02-15T00:48:54;10.93;;;5.47;;
78989;SDS011;68390;52.130;21.218;2024-02-15T00:51:20;14.65;;;6.93;;
78989;SDS011;68390;52.130;21.218;2024-02-15T00:53:45;11.75;;;6.03;;
78989;SDS011;68390;52.130;21.218;2024-02-15T00:56:10;11.48;;;5.55;;
78989;SDS011;68390;52.130;21.218;2024-02-15T00:58:42;15.07;;;6.28;;
78989;SDS011;68390;52.130;21.218;2024-02-15T01:01:08;13.13;;;5.97;;
78989;SDS011;68390;52.130;21.218;2024-02-15T01:03:34;14.73;;;6.47;;
78989;SDS011;68390;52.130;21.218;2024-02-15T01:06:00;14.55;;;6.15;;
78989;SDS011;68390;52.130;21.218;2024-02-15T01:08:26;11.68;;;6.00;;
78989;SDS011;68390;52.130;21.218;2024-02-15T01:10:51;12.75;;;6.28;;
78989;SDS011;68390;52.130;21.218;2024-02-15T01:13:18;13.60;;;6.13;;
78989;SDS011;68390;52.130;21.218;2024-02-15T01:15:44;10.95;;;5.75;;
78989;SDS011;68390;52.130;21.218;2024-02-15T01:18:11;14.40;;;6.57;;
78989;SDS011;68390;52.130;21.218;2024-02-15T01:20:36;13.93;;;6.35;;
78989;SDS011;68390;52.130;21.218;2024-02-15T01:23:02;13.60;;;6.63;;
78989;SDS011;68390;52.130;21.218;2024-02-15T01:25:27;12.18;;;6.30;;
78989;SDS011;68390;52.130;21.218;2024-02-15T01:27:53;14.88;;;6.43;;
78989;SDS011;68390;52.130;21.218;2024-02-15T01:30:19;12.20;;;6.97;;
78989;SDS011;68390;52.130;21.218;2024-02-15T01:32:44;13.65;;;5.85;;
78989;SDS011;68390;52.130;21.218;2024-02-15T01:35:09;11.38;;;6.28;;
78989;SDS011;68390;52.130;21.218;2024-02-15T01:37:35;14.95;;;5.70;;
78989;SDS011;68390;52.130;21.218;2024-02-15T01:40:01;13.73;;;6.35;;
78989;SDS011;68390;52.130;21.218;2024-02-15T01:42:27;11.80;;;6.07;;
78989;SDS011;68390;52.130;21.218;2024-02-15T01:44:54;12.43;;;6.45;;
78989;SDS011;68390;52.130;21.218;2024-02-15T01:47:19;13.63;;;6.63;;
78989;SDS011;68390;52.130;21.218;2024-02-15T01:49:45;12.30;;;6.32;;
78989;SDS011;68390;52.130;21.218;2024-02-15T01:52:13;14.45;;;6.38;;
78989;SDS011;68390;52.130;21.218;2024-02-15T01:54:39;12.15;;;6.38;;
78989;SDS011;68390;52.130;21.218;2024-02-15T01:57:05;16.58;;;7.35;;
78989;SDS011;68390;52.130;21.218;2024-02-15T01:59:31;13.48;;;5.95;;
78989;SDS011;68390;52.130;21.218;2024-02-15T02:01:57;14.48;;;5.82;;
78989;SDS011;68390;52.130;21.218;2024-02-15T02:04:22;14.15;;;7.07;;
78989;SDS011;68390;52.130;21.218;2024-02-15T02:06:48;13.23;;;6.18;;
78989;SDS011;68390;52.130;21.218;2024-02-15T02:09:13;13.90;;;7.00;;
78989;SDS011;68390;52.130;21.218;2024-02-15T02:11:40;11.60;;;6.05;;
78989;SDS011;68390;52.130;21.218;2024-02-15T02:14:06;11.90;;;6.80;;
78989;SDS011;68390;52.130;21.218;2024-02-15T02:16:31;12.40;;;6.38;;
78989;SDS011;68390;52.130;21.218;2024-02-15T02:19:00;16.40;;;7.25;;
78989;SDS011;68390;52.130;21.218;2024-02-15T02:21:26;11.38;;;6.35;;
78989;SDS011;68390;52.130;21.218;2024-02-15T02:23:52;15.68;;;6.80;;
78989;SDS011;68390;52.130;21.218;2024-02-15T02:26:21;11.95;;;6.25;;
78989;SDS011;68390;52.130;21.218;2024-02-15T02:28:47;16.33;;;7.50;;
78989;SDS011;68390;52.130;21.218;2024-02-15T02:31:13;13.80;;;6.50;;
78989;SDS011;68390;52.130;21.218;2024-02-15T02:33:39;12.88;;;6.38;;
78989;SDS011;68390;52.130;21.218;2024-02-15T02:36:05;16.40;;;6.28;;
78989;SDS011;68390;52.130;21.218;2024-02-15T02:38:34;11.70;;;6.30;;
78989;SDS011;68390;52.130;21.218;2024-02-15T02:41:03;12.80;;;6.53;;
78989;SDS011;68390;52.130;21.218;2024-02-15T02:43:29;11.60;;;6.05;;
78989;SDS011;68390;52.130;21.218;2024-02-15T02:45:54;12.52;;;6.10;;
78989;SDS011;68390;52.130;21.218;2024-02-15T02:48:19;14.55;;;6.28;;
78989;SDS011;68390;52.130;21.218;2024-02-15T02:50:45;10.77;;;5.78;;
78989;SDS011;68390;52.130;21.218;2024-02-15T02:53:10;15.35;;;6.57;;
78989;SDS011;68390;52.130;21.218;2024-02-15T02:55:36;14.05;;;6.25;;
78989;SDS011;68390;52.130;21.218;2024-02-15T02:58:01;13.43;;;6.00;;
78989;SDS011;68390;52.130;21.218;2024-02-15T03:00:27;11.38;;;5.90;;
78989;SDS011;68390;52.130;21.218;2024-02-15T03:02:52;15.35;;;6.07;;
78989;SDS011;68390;52.130;21.218;2024-02-15T03:05:21;13.00;;;6.55;;
78989;SDS011;68390;52.130;21.218;2024-02-15T03:07:47;17.98;;;6.88;;
78989;SDS011;68390;52.130;21.218;2024-02-15T03:10:12;13.95;;;6.47;;
78989;SDS011;68390;52.130;21.218;2024-02-15T03:12:38;14.55;;;5.97;;
78989;SDS011;68390;52.130;21.218;2024-02-15T03:15:04;13.95;;;6.95;;
78989;SDS011;68390;52.130;21.218;2024-02-15T03:17:36;14.02;;;6.70;;
78989;SDS011;68390;52.130;21.218;2024-02-15T03:20:05;11.93;;;6.90;;
78989;SDS011;68390;52.130;21.218;2024-02-15T03:22:36;13.18;;;6.47;;
78989;SDS011;68390;52.130;21.218;2024-02-15T03:25:03;13.73;;;6.90;;
78989;SDS011;68390;52.130;21.218;2024-02-15T03:27:33;14.80;;;7.00;;
78989;SDS011;68390;52.130;21.218;2024-02-15T03:29:59;15.45;;;6.78;;
78989;SDS011;68390;52.130;21.218;2024-02-15T03:32:25;13.23;;;6.60;;
78989;SDS011;68390;52.130;21.218;2024-02-15T03:34:51;13.35;;;6.78;;
78989;SDS011;68390;52.130;21.218;2024-02-15T03:37:16;14.00;;;6.70;;
78989;SDS011;68390;52.130;21.218;2024-02-15T03:39:43;12.43;;;6.35;;
78989;SDS011;68390;52.130;21.218;2024-02-15T03:42:08;13.52;;;7.00;;
78989;SDS011;68390;52.130;21.218;2024-02-15T03:44:35;13.05;;;6.70;;
78989;SDS011;68390;52.130;21.218;2024-02-15T03:47:00;14.40;;;7.32;;
78989;SDS011;68390;52.130;21.218;2024-02-15T03:49:27;17.67;;;7.43;;
78989;SDS011;68390;52.130;21.218;2024-02-15T03:51:52;18.77;;;7.45;;
78989;SDS011;68390;52.130;21.218;2024-02-15T03:54:20;10.98;;;5.95;;
78989;SDS011;68390;52.130;21.218;2024-02-15T03:56:50;14.90;;;6.80;;
78989;SDS011;68390;52.130;21.218;2024-02-15T03:59:20;10.90;;;5.85;;
78989;SDS011;68390;52.130;21.218;2024-02-15T04:01:47;11.63;;;6.32;;
78989;SDS011;68390;52.130;21.218;2024-02-15T04:04:13;18.02;;;7.07;;
78989;SDS011;68390;52.130;21.218;2024-02-15T04:06:38;15.13;;;6.68;;
78989;SDS011;68390;52.130;21.218;2024-02-15T04:09:05;15.57;;;6.95;;
78989;SDS011;68390;52.130;21.218;2024-02-15T04:11:32;13.75;;;6.78;;
78989;SDS011;68390;52.130;21.218;2024-02-15T04:13:58;12.60;;;6.68;;
78989;SDS011;68390;52.130;21.218;2024-02-15T04:16:24;13.35;;;6.15;;
78989;SDS011;68390;52.130;21.218;2024-02-15T04:18:50;13.30;;;7.03;;
78989;SDS011;68390;52.130;21.218;2024-02-15T04:21:16;13.77;;;7.10;;
78989;SDS011;68390;52.130;21.218;2024-02-15T04:23:44;14.18;;;7.03;;
78989;SDS011;68390;52.130;21.218;2024-02-15T04:26:10;14.93;;;7.57;;
78989;SDS011;68390;52.130;21.218;2024-02-15T04:28:38;14.32;;;6.75;;
78989;SDS011;68390;52.130;21.218;2024-02-15T04:31:04;15.98;;;7.47;;
78989;SDS011;68390;52.130;21.218;2024-02-15T04:33:33;12.70;;;6.88;;
78989;SDS011;68390;52.130;21.218;2024-02-15T04:35:58;13.98;;;7.43;;
78989;SDS011;68390;52.130;21.218;2024-02-15T04:38:27;16.42;;;6.90;;
78989;SDS011;68390;52.130;21.218;2024-02-15T04:40:52;14.00;;;7.60;;
78989;SDS011;68390;52.130;21.218;2024-02-15T04:43:19;15.07;;;7.18;;
78989;SDS011;68390;52.130;21.218;2024-02-15T04:45:44;14.50;;;7.68;;
78989;SDS011;68390;52.130;21.218;2024-02-15T04:48:11;16.67;;;7.45;;
78989;SDS011;68390;52.130;21.218;2024-02-15T04:50:39;17.45;;;7.75;;
78989;SDS011;68390;52.130;21.218;2024-02-15T04:53:08;13.38;;;7.18;;
78989;SDS011;68390;52.130;21.218;2024-02-15T04:55:33;15.20;;;7.00;;
78989;SDS011;68390;52.130;21.218;2024-02-15T04:58:00;15.60;;;7.18;;
78989;SDS011;68390;52.130;21.218;2024-02-15T05:00:26;14.40;;;7.13;;
78989;SDS011;68390;52.130;21.218;2024-02-15T05:02:52;12.90;;;6.95;;
78989;SDS011;68390;52.130;21.218;2024-02-15T05:05:18;15.95;;;7.13;;
78989;SDS011;68390;52.130;21.218;2024-02-15T05:07:44;16.10;;;7.50;;
78989;SDS011;68390;52.130;21.218;2024-02-15T05:10:09;13.10;;;6.78;;
78989;SDS011;68390;52.130;21.218;2024-02-15T05:12:36;16.48;;;7.28;;
78989;SDS011;68390;52.130;21.218;2024-02-15T05:15:02;14.63;;;6.68;;
78989;SDS011;68390;52.130;21.218;2024-02-15T05:17:38;16.67;;;6.90;;
78989;SDS011;68390;52.130;21.218;2024-02-15T05:20:10;14.20;;;6.85;;
78989;SDS011;68390;52.130;21.218;2024-02-15T05:25:04;15.90;;;6.43;;
78989;SDS011;68390;52.130;21.218;2024-02-15T05:27:30;14.30;;;7.53;;
78989;SDS011;68390;52.130;21.218;2024-02-15T05:29:56;14.02;;;7.15;;
78989;SDS011;68390;52.130;21.218;2024-02-15T05:32:22;16.45;;;7.75;;
78989;SDS011;68390;52.130;21.218;2024-02-15T05:34:47;14.80;;;7.53;;
78989;SDS011;68390;52.130;21.218;2024-02-15T05:37:13;16.15;;;7.13;;
78989;SDS011;68390;52.130;21.218;2024-02-15T05:39:41;16.10;;;7.28;;
78989;SDS011;68390;52.130;21.218;2024-02-15T05:42:07;15.38;;;7.38;;
78989;SDS011;68390;52.130;21.218;2024-02-15T05:44:33;17.90;;;7.95;;
78989;SDS011;68390;52.130;21.218;2024-02-15T05:46:59;15.32;;;8.10;;
78989;SDS011;68390;52.130;21.218;2024-02-15T05:49:25;15.60;;;7.47;;
78989;SDS011;68390;52.130;21.218;2024-02-15T05:51:50;14.10;;;7.30;;
78989;SDS011;68390;52.130;21.218;2024-02-15T05:54:18;14.20;;;7.32;;
78989;SDS011;68390;52.130;21.218;2024-02-15T05:56:44;14.80;;;7.20;;
78989;SDS011;68390;52.130;21.218;2024-02-15T05:59:09;16.85;;;7.90;;
78989;SDS011;68390;52.130;21.218;2024-02-15T06:01:38;13.43;;;7.57;;
78989;SDS011;68390;52.130;21.218;2024-02-15T06:04:04;15.40;;;7.28;;
78989;SDS011;68390;52.130;21.218;2024-02-15T06:06:33;15.50;;;7.20;;
78989;SDS011;68390;52.130;21.218;2024-02-15T06:08:58;16.92;;;8.13;;
78989;SDS011;68390;52.130;21.218;2024-02-15T06:11:25;17.45;;;8.93;;
78989;SDS011;68390;52.130;21.218;2024-02-15T06:13:51;14.95;;;8.57;;
78989;SDS011;68390;52.130;21.218;2024-02-15T06:16:16;18.00;;;8.43;;
78989;SDS011;68390;52.130;21.218;2024-02-15T06:18:42;15.40;;;6.93;;
78989;SDS011;68390;52.130;21.218;2024-02-15T06:21:07;16.80;;;8.23;;
78989;SDS011;68390;52.130;21.218;2024-02-15T06:23:34;16.20;;;7.72;;
78989;SDS011;68390;52.130;21.218;2024-02-15T06:26:00;15.35;;;8.18;;
78989;SDS011;68390;52.130;21.218;2024-02-15T06:28:27;16.25;;;8.50;;
78989;SDS011;68390;52.130;21.218;2024-02-15T06:31:13;15.93;;;7.35;;
78989;SDS011;68390;52.130;21.218;2024-02-15T06:33:57;15.48;;;7.53;;
78989;SDS011;68390;52.130;21.218;2024-02-15T06:36:45;16.23;;;8.25;;
78989;SDS011;68390;52.130;21.218;2024-02-15T06:39:30;15.73;;;7.68;;
78989;SDS011;68390;52.130;21.218;2024-02-15T06:42:13;15.82;;;7.82;;
78989;SDS011;68390;52.130;21.218;2024-02-15T06:44:47;19.42;;;8.85;;
78989;SDS011;68390;52.130;21.218;2024-02-15T06:47:13;15.63;;;8.43;;
78989;SDS011;68390;52.130;21.218;2024-02-15T06:49:41;15.50;;;8.75;;
78989;SDS011;68390;52.130;21.218;2024-02-15T06:52:09;18.42;;;9.10;;
78989;SDS011;68390;52.130;21.218;2024-02-15T06:54:39;18.23;;;9.65;;
78989;SDS011;68390;52.130;21.218;2024-02-15T06:59:31;15.02;;;8.05;;
78989;SDS011;68390;52.130;21.218;2024-02-15T07:01:58;15.38;;;8.40;;
78989;SDS011;68390;52.130;21.218;2024-02-15T07:04:24;18.67;;;9.30;;
78989;SDS011;68390;52.130;21.218;2024-02-15T07:06:52;18.73;;;9.77;;
78989;SDS011;68390;52.130;21.218;2024-02-15T07:09:19;18.60;;;9.05;;
78989;SDS011;68390;52.130;21.218;2024-02-15T07:11:46;19.55;;;9.18;;
78989;SDS011;68390;52.130;21.218;2024-02-15T07:14:12;19.85;;;9.25;;
78989;SDS011;68390;52.130;21.218;2024-02-15T07:16:37;17.33;;;8.75;;
78989;SDS011;68390;52.130;21.218;2024-02-15T07:19:03;25.25;;;9.40;;
78989;SDS011;68390;52.130;21.218;2024-02-15T07:21:28;18.10;;;9.98;;
78989;SDS011;68390;52.130;21.218;2024-02-15T07:23:54;18.17;;;9.32;;
78989;SDS011;68390;52.130;21.218;2024-02-15T07:26:23;20.88;;;10.38;;
78989;SDS011;68390;52.130;21.218;2024-02-15T07:28:53;17.40;;;9.68;;
78989;SDS011;68390;52.130;21.218;2024-02-15T07:31:20;20.15;;;9.77;;
78989;SDS011;68390;52.130;21.218;2024-02-15T07:33:46;15.63;;;9.30;;
78989;SDS011;68390;52.130;21.218;2024-02-15T07:36:19;19.98;;;9.88;;
78989;SDS011;68390;52.130;21.218;2024-02-15T07:38:47;18.17;;;10.55;;
78989;SDS011;68390;52.130;21.218;2024-02-15T07:41:13;20.08;;;10.00;;
78989;SDS011;68390;52.130;21.218;2024-02-15T07:43:40;29.15;;;12.02;;
78989;SDS011;68390;52.130;21.218;2024-02-15T07:46:05;22.08;;;10.93;;
78989;SDS011;68390;52.130;21.218;2024-02-15T07:48:31;24.95;;;12.15;;
78989;SDS011;68390;52.130;21.218;2024-02-15T07:50:57;21.98;;;11.25;;
78989;SDS011;68390;52.130;21.218;2024-02-15T07:53:23;23.65;;;11.13;;
78989;SDS011;68390;52.130;21.218;2024-02-15T07:55:49;22.27;;;11.23;;
78989;SDS011;68390;52.130;21.218;2024-02-15T07:58:15;25.17;;;11.80;;
78989;SDS011;68390;52.130;21.218;2024-02-15T08:00:43;20.63;;;11.63;;
78989;SDS011;68390;52.130;21.218;2024-02-15T08:03:08;19.38;;;11.00;;
78989;SDS011;68390;52.130;21.218;2024-02-15T08:05:35;22.10;;;10.68;;
78989;SDS011;68390;52.130;21.218;2024-02-15T08:08:02;24.42;;;11.68;;
78989;SDS011;68390;52.130;21.218;2024-02-15T08:10:29;25.90;;;12.25;;
78989;SDS011;68390;52.130;21.218;2024-02-15T08:12:55;22.73;;;11.82;;
78989;SDS011;68390;52.130;21.218;2024-02-15T08:15:23;22.15;;;11.55;;
78989;SDS011;68390;52.130;21.218;2024-02-15T08:17:49;26.40;;;12.00;;
78989;SDS011;68390;52.130;21.218;2024-02-15T08:20:16;26.58;;;13.00;;
78989;SDS011;68390;52.130;21.218;2024-02-15T08:22:46;21.40;;;12.05;;
78989;SDS011;68390;52.130;21.218;2024-02-15T08:25:12;25.38;;;11.93;;
78989;SDS011;68390;52.130;21.218;2024-02-15T08:27:41;25.15;;;12.68;;
78989;SDS011;68390;52.130;21.218;2024-02-15T08:30:09;27.50;;;12.70;;
78989;SDS011;68390;52.130;21.218;2024-02-15T08:32:39;24.45;;;13.35;;
78989;SDS011;68390;52.130;21.218;2024-02-15T08:35:07;23.38;;;12.55;;
78989;SDS011;68390;52.130;21.218;2024-02-15T08:37:36;23.90;;;12.18;;
78989;SDS011;68390;52.130;21.218;2024-02-15T08:42:41;26.00;;;12.90;;
78989;SDS011;68390;52.130;21.218;2024-02-15T08:45:08;30.02;;;14.32;;
78989;SDS011;68390;52.130;21.218;2024-02-15T08:47:37;28.08;;;13.73;;
78989;SDS011;68390;52.130;21.218;2024-02-15T08:50:04;28.25;;;14.75;;
78989;SDS011;68390;52.130;21.218;2024-02-15T08:52:30;26.08;;;12.93;;
78989;SDS011;68390;52.130;21.218;2024-02-15T08:54:56;27.08;;;14.55;;
78989;SDS011;68390;52.130;21.218;2024-02-15T08:57:22;26.67;;;13.65;;
78989;SDS011;68390;52.130;21.218;2024-02-15T08:59:49;28.85;;;14.18;;
78989;SDS011;68390;52.130;21.218;2024-02-15T09:02:16;25.40;;;13.98;;
78989;SDS011;68390;52.130;21.218;2024-02-15T09:04:42;27.45;;;14.23;;
78989;SDS011;68390;52.130;21.218;2024-02-15T09:07:08;28.88;;;14.45;;
78989;SDS011;68390;52.130;21.218;2024-02-15T09:09:34;28.55;;;14.52;;
78989;SDS011;68390;52.130;21.218;2024-02-15T09:12:02;29.30;;;14.25;;
78989;SDS011;68390;52.130;21.218;2024-02-15T09:14:31;29.70;;;14.10;;
78989;SDS011;68390;52.130;21.218;2024-02-15T09:17:01;25.80;;;13.85;;
78989;SDS011;68390;52.130;21.218;2024-02-15T09:19:32;28.10;;;13.63;;
78989;SDS011;68390;52.130;21.218;2024-02-15T09:22:03;30.33;;;14.50;;
78989;SDS011;68390;52.130;21.218;2024-02-15T09:24:30;26.50;;;14.05;;
78989;SDS011;68390;52.130;21.218;2024-02-15T09:26:55;32.88;;;14.57;;
78989;SDS011;68390;52.130;21.218;2024-02-15T09:29:21;27.35;;;14.55;;
78989;SDS011;68390;52.130;21.218;2024-02-15T09:31:49;30.85;;;14.63;;
78989;SDS011;68390;52.130;21.218;2024-02-15T09:34:15;31.58;;;14.13;;
78989;SDS011;68390;52.130;21.218;2024-02-15T09:36:40;26.02;;;14.70;;
78989;SDS011;68390;52.130;21.218;2024-02-15T09:39:05;27.38;;;14.27;;
78989;SDS011;68390;52.130;21.218;2024-02-15T09:41:31;37.05;;;16.02;;
78989;SDS011;68390;52.130;21.218;2024-02-15T09:43:58;30.55;;;14.20;;
78989;SDS011;68390;52.130;21.218;2024-02-15T09:46:26;26.15;;;14.25;;
78989;SDS011;68390;52.130;21.218;2024-02-15T09:48:52;30.98;;;14.02;;
78989;SDS011;68390;52.130;21.218;2024-02-15T09:51:23;30.08;;;15.00;;
78989;SDS011;68390;52.130;21.218;2024-02-15T09:53:52;26.95;;;14.68;;
78989;SDS011;68390;52.130;21.218;2024-02-15T09:56:18;24.52;;;14.30;;
78989;SDS011;68390;52.130;21.218;2024-02-15T09:58:46;26.30;;;14.20;;
78989;SDS011;68390;52.130;21.218;2024-02-15T10:01:12;30.25;;;14.27;;
78989;SDS011;68390;52.130;21.218;2024-02-15T10:03:40;29.67;;;15.23;;
78989;SDS011;68390;52.130;21.218;2024-02-15T10:06:06;26.10;;;13.80;;
78989;SDS011;68390;52.130;21.218;2024-02-15T10:08:31;29.98;;;15.80;;
78989;SDS011;68390;52.130;21.218;2024-02-15T10:11:06;25.02;;;13.88;;
78989;SDS011;68390;52.130;21.218;2024-02-15T10:13:35;30.45;;;15.15;;
78989;SDS011;68390;52.130;21.218;2024-02-15T10:16:17;28.52;;;14.60;;
78989;SDS011;68390;52.130;21.218;2024-02-15T10:21:09;29.15;;;15.10;;
78989;SDS011;68390;52.130;21.218;2024-02-15T10:23:36;30.17;;;14.25;;
78989;SDS011;68390;52.130;21.218;2024-02-15T10:26:09;30.77;;;16.13;;
78989;SDS011;68390;52.130;21.218;2024-02-15T10:28:44;28.27;;;14.82;;
78989;SDS011;68390;52.130;21.218;2024-02-15T10:31:09;27.95;;;14.63;;
78989;SDS011;68390;52.130;21.218;2024-02-15T10:33:38;29.40;;;15.25;;
78989;SDS011;68390;52.130;21.218;2024-02-15T10:36:10;27.50;;;15.50;;
78989;SDS011;68390;52.130;21.218;2024-02-15T10:38:36;26.67;;;15.90;;
78989;SDS011;68390;52.130;21.218;2024-02-15T10:41:02;32.95;;;15.32;;
78989;SDS011;68390;52.130;21.218;2024-02-15T10:43:35;28.13;;;14.18;;
78989;SDS011;68390;52.130;21.218;2024-02-15T10:46:03;27.98;;;15.02;;
78989;SDS011;68390;52.130;21.218;2024-02-15T10:48:28;28.27;;;15.07;;
78989;SDS011;68390;52.130;21.218;2024-02-15T10:50:55;31.25;;;15.18;;
78989;SDS011;68390;52.130;21.218;2024-02-15T10:53:27;27.77;;;15.55;;
78989;SDS011;68390;52.130;21.218;2024-02-15T10:58:53;29.67;;;15.27;;
78989;SDS011;68390;52.130;21.218;2024-02-15T11:01:25;28.65;;;16.05;;
78989;SDS011;68390;52.130;21.218;2024-02-15T11:04:00;26.80;;;15.55;;
78989;SDS011;68390;52.130;21.218;2024-02-15T11:06:33;33.97;;;16.50;;
78989;SDS011;68390;52.130;21.218;2024-02-15T11:09:04;26.90;;;16.02;;
78989;SDS011;68390;52.130;21.218;2024-02-15T11:11:32;30.73;;;15.43;;
78989;SDS011;68390;52.130;21.218;2024-02-15T11:17:00;31.95;;;16.88;;
78989;SDS011;68390;52.130;21.218;2024-02-15T11:22:07;33.65;;;16.40;;
78989;SDS011;68390;52.130;21.218;2024-02-15T11:24:36;29.65;;;15.65;;
78989;SDS011;68390;52.130;21.218;2024-02-15T11:27:02;30.75;;;16.98;;
78989;SDS011;68390;52.130;21.218;2024-02-15T11:46:12;36.13;;;17.75;;
78989;SDS011;68390;52.130;21.218;2024-02-15T11:48:38;31.13;;;16.20;;
78989;SDS011;68390;52.130;21.218;2024-02-15T11:51:04;29.30;;;16.48;;
78989;SDS011;68390;52.130;21.218;2024-02-15T11:53:31;32.00;;;16.95;;
78989;SDS011;68390;52.130;21.218;2024-02-15T11:56:00;31.92;;;16.88;;
78989;SDS011;68390;52.130;21.218;2024-02-15T11:58:26;30.63;;;16.15;;
78989;SDS011;68390;52.130;21.218;2024-02-15T12:01:10;29.17;;;15.80;;
78989;SDS011;68390;52.130;21.218;2024-02-15T12:03:54;26.55;;;14.18;;
78989;SDS011;68390;52.130;21.218;2024-02-15T12:06:39;28.85;;;15.50;;
78989;SDS011;68390;52.130;21.218;2024-02-15T12:09:23;31.50;;;17.45;;
78989;SDS011;68390;52.130;21.218;2024-02-15T12:12:10;28.85;;;15.45;;
78989;SDS011;68390;52.130;21.218;2024-02-15T12:15:01;26.35;;;14.07;;
78989;SDS011;68390;52.130;21.218;2024-02-15T12:17:48;29.52;;;15.32;;
78989;SDS011;68390;52.130;21.218;2024-02-15T12:20:32;29.40;;;14.98;;
78989;SDS011;68390;52.130;21.218;2024-02-15T12:22:59;27.75;;;15.32;;
78989;SDS011;68390;52.130;21.218;2024-02-15T12:25:25;31.30;;;15.50;;
78989;SDS011;68390;52.130;21.218;2024-02-15T12:27:52;27.25;;;15.52;;
78989;SDS011;68390;52.130;21.218;2024-02-15T12:30:19;28.75;;;15.52;;
78989;SDS011;68390;52.130;21.218;2024-02-15T12:32:47;27.90;;;14.40;;
78989;SDS011;68390;52.130;21.218;2024-02-15T12:35:13;27.02;;;15.43;;
78989;SDS011;68390;52.130;21.218;2024-02-15T12:38:05;27.48;;;14.75;;
78989;SDS011;68390;52.130;21.218;2024-02-15T12:40:39;27.10;;;14.57;;
78989;SDS011;68390;52.130;21.218;2024-02-15T12:43:05;29.75;;;14.45;;
78989;SDS011;68390;52.130;21.218;2024-02-15T12:45:33;32.05;;;16.65;;
78989;SDS011;68390;52.130;21.218;2024-02-15T12:48:03;38.15;;;21.15;;
78989;SDS011;68390;52.130;21.218;2024-02-15T12:50:29;31.00;;;15.93;;
78989;SDS011;68390;52.130;21.218;2024-02-15T12:52:55;26.50;;;14.63;;
78989;SDS011;68390;52.130;21.218;2024-02-15T12:55:28;33.70;;;18.13;;
78989;SDS011;68390;52.130;21.218;2024-02-15T12:57:59;60.47;;;32.90;;
78989;SDS011;68390;52.130;21.218;2024-02-15T13:00:28;31.00;;;17.85;;
78989;SDS011;68390;52.130;21.218;2024-02-15T13:02:57;28.30;;;14.65;;
78989;SDS011;68390;52.130;21.218;2024-02-15T13:05:26;27.55;;;13.25;;
78989;SDS011;68390;52.130;21.218;2024-02-15T13:07:53;29.88;;;14.68;;
78989;SDS011;68390;52.130;21.218;2024-02-15T13:10:28;24.05;;;12.68;;
78989;SDS011;68390;52.130;21.218;2024-02-15T13:15:22;28.33;;;13.80;;
78989;SDS011;68390;52.130;21.218;2024-02-15T13:17:52;27.23;;;13.85;;
78989;SDS011;68390;52.130;21.218;2024-02-15T13:20:21;25.20;;;13.02;;
78989;SDS011;68390;52.130;21.218;2024-02-15T13:22:57;26.13;;;13.52;;
78989;SDS011;68390;52.130;21.218;2024-02-15T13:25:36;25.80;;;15.05;;
78989;SDS011;68390;52.130;21.218;2024-02-15T13:28:04;42.47;;;19.08;;
78989;SDS011;68390;52.130;21.218;2024-02-15T13:30:30;57.03;;;24.02;;
78989;SDS011;68390;52.130;21.218;2024-02-15T13:32:56;40.03;;;18.50;;
78989;SDS011;68390;52.130;21.218;2024-02-15T13:35:22;46.53;;;20.23;;
78989;SDS011;68390;52.130;21.218;2024-02-15T13:40:15;39.65;;;18.65;;
78989;SDS011;68390;52.130;21.218;2024-02-15T13:42:41;26.65;;;16.17;;
78989;SDS011;68390;52.130;21.218;2024-02-15T13:45:12;26.48;;;14.02;;
78989;SDS011;68390;52.130;21.218;2024-02-15T13:47:39;25.38;;;13.80;;
78989;SDS011;68390;52.130;21.218;2024-02-15T13:50:04;26.75;;;13.30;;
78989;SDS011;68390;52.130;21.218;2024-02-15T13:52:30;28.42;;;13.88;;
78989;SDS011;68390;52.130;21.218;2024-02-15T13:54:56;29.75;;;16.70;;
78989;SDS011;68390;52.130;21.218;2024-02-15T13:57:21;75.47;;;31.83;;
78989;SDS011;68390;52.130;21.218;2024-02-15T13:59:48;46.92;;;21.38;;
78989;SDS011;68390;52.130;21.218;2024-02-15T14:02:13;28.75;;;15.68;;
78989;SDS011;68390;52.130;21.218;2024-02-15T14:04:39;29.27;;;15.93;;
78989;SDS011;68390;52.130;21.218;2024-02-15T14:07:05;39.60;;;19.63;;
78989;SDS011;68390;52.130;21.218;2024-02-15T14:09:30;25.23;;;12.93;;
78989;SDS011;68390;52.130;21.218;2024-02-15T14:11:55;27.75;;;14.43;;
78989;SDS011;68390;52.130;21.218;2024-02-15T14:14:22;27.00;;;15.18;;
78989;SDS011;68390;52.130;21.218;2024-02-15T14:16:48;25.65;;;13.18;;
78989;SDS011;68390;52.130;21.218;2024-02-15T14:19:13;26.30;;;14.77;;
78989;SDS011;68390;52.130;21.218;2024-02-15T14:21:39;29.48;;;14.15;;
78989;SDS011;68390;52.130;21.218;2024-02-15T14:24:07;25.67;;;14.68;;
78989;SDS011;68390;52.130;21.218;2024-02-15T14:26:33;26.40;;;12.98;;
78989;SDS011;68390;52.130;21.218;2024-02-15T14:28:59;18.77;;;12.60;;
78989;SDS011;68390;52.130;21.218;2024-02-15T14:31:28;25.95;;;13.35;;
78989;SDS011;68390;52.130;21.218;2024-02-15T14:34:12;22.70;;;12.80;;
78989;SDS011;68390;52.130;21.218;2024-02-15T14:36:37;26.23;;;12.30;;
78989;SDS011;68390;52.130;21.218;2024-02-15T14:39:02;21.00;;;12.55;;
78989;SDS011;68390;52.130;21.218;2024-02-15T14:41:29;25.70;;;12.88;;
78989;SDS011;68390;52.130;21.218;2024-02-15T14:43:56;25.02;;;12.73;;
78989;SDS011;68390;52.130;21.218;2024-02-15T14:46:21;20.42;;;12.10;;
78989;SDS011;68390;52.130;21.218;2024-02-15T14:48:47;25.55;;;13.40;;
78989;SDS011;68390;52.130;21.218;2024-02-15T14:51:16;140.80;;;54.63;;
78989;SDS011;68390;52.130;21.218;2024-02-15T14:53:44;48.80;;;22.20;;
78989;SDS011;68390;52.130;21.218;2024-02-15T14:56:09;25.50;;;13.40;;
78989;SDS011;68390;52.130;21.218;2024-02-15T14:58:35;25.50;;;13.52;;